sensor_id;sensor_type;location;lat;lon;timestamp;pressure;altitude;pressure_sealevel;temperature
70969;BMP280;58630;43.022;25.100;2023-03-23T00:02:23;;;;16.00
70969;BMP280;58630;43.022;25.100;2023-03-23T00:04:49;;;;15.90
70969;BMP280;58630;43.022;25.100;2023-03-23T00:07:16;;;;15.90
70969;BMP280;58630;43.022;25.100;2023-03-23T00:09:49;;;;16.00
70969;BMP280;58630;43.022;25.100;2023-03-23T00:12:23;;;;15.90
70969;BMP280;58630;43.022;25.100;2023-03-23T00:14:55;;;;15.90
70969;BMP280;58630;43.022;25.100;2023-03-23T00:17:20;;;;15.90
70969;BMP280;58630;43.022;25.100;2023-03-23T00:19:46;;;;15.90
70969;BMP280;58630;43.022;25.100;2023-03-23T00:22:15;;;;15.90
70969;BMP280;58630;43.022;25.100;2023-03-23T00:24:42;;;;15.90
70969;BMP280;58630;43.022;25.100;2023-03-23T00:27:09;;;;15.90
70969;BMP280;58630;43.022;25.100;2023-03-23T00:29:38;;;;15.90
70969;BMP280;58630;43.022;25.100;2023-03-23T00:32:04;;;;15.90
70969;BMP280;58630;43.022;25.100;2023-03-23T00:34:30;;;;15.90
70969;BMP280;58630;43.022;25.100;2023-03-23T00:36:59;;;;15.90
70969;BMP280;58630;43.022;25.100;2023-03-23T00:39:25;;;;15.90
70969;BMP280;58630;43.022;25.100;2023-03-23T00:41:52;;;;15.90
70969;BMP280;58630;43.022;25.100;2023-03-23T00:44:18;;;;15.90
70969;BMP280;58630;43.022;25.100;2023-03-23T00:46:47;;;;15.80
70969;BMP280;58630;43.022;25.100;2023-03-23T00:49:17;;;;15.90
70969;BMP280;58630;43.022;25.100;2023-03-23T00:51:43;;;;15.90
70969;BMP280;58630;43.022;25.100;2023-03-23T00:54:09;;;;15.80
70969;BMP280;58630;43.022;25.100;2023-03-23T00:56:35;;;;15.80
70969;BMP280;58630;43.022;25.100;2023-03-23T00:59:01;;;;15.80
70969;BMP280;58630;43.022;25.100;2023-03-23T01:01:27;;;;15.80
70969;BMP280;58630;43.022;25.100;2023-03-23T01:03:52;;;;15.80
70969;BMP280;58630;43.022;25.100;2023-03-23T01:06:28;;;;15.80
70969;BMP280;58630;43.022;25.100;2023-03-23T01:08:56;;;;15.80
70969;BMP280;58630;43.022;25.100;2023-03-23T01:11:22;;;;15.80
70969;BMP280;58630;43.022;25.100;2023-03-23T01:13:47;;;;15.80
70969;BMP280;58630;43.022;25.100;2023-03-23T01:16:13;;;;15.80
70969;BMP280;58630;43.022;25.100;2023-03-23T01:18:39;;;;15.80
70969;BMP280;58630;43.022;25.100;2023-03-23T01:21:08;;;;15.80
70969;BMP280;58630;43.022;25.100;2023-03-23T01:23:35;;;;15.70
70969;BMP280;58630;43.022;25.100;2023-03-23T01:26:09;;;;15.70
70969;BMP280;58630;43.022;25.100;2023-03-23T01:28:35;;;;15.80
70969;BMP280;58630;43.022;25.100;2023-03-23T01:31:05;;;;15.70
70969;BMP280;58630;43.022;25.100;2023-03-23T01:33:31;;;;15.70
70969;BMP280;58630;43.022;25.100;2023-03-23T01:35:57;;;;15.70
70969;BMP280;58630;43.022;25.100;2023-03-23T01:38:23;;;;15.70
70969;BMP280;58630;43.022;25.100;2023-03-23T01:40:48;;;;15.70
70969;BMP280;58630;43.022;25.100;2023-03-23T01:43:14;;;;15.70
70969;BMP280;58630;43.022;25.100;2023-03-23T01:45:40;;;;15.70
70969;BMP280;58630;43.022;25.100;2023-03-23T01:48:12;;;;15.70
70969;BMP280;58630;43.022;25.100;2023-03-23T01:53:23;;;;15.70
70969;BMP280;58630;43.022;25.100;2023-03-23T01:55:50;;;;15.70
70969;BMP280;58630;43.022;25.100;2023-03-23T01:58:19;;;;15.70
70969;BMP280;58630;43.022;25.100;2023-03-23T02:00:46;;;;15.60
70969;BMP280;58630;43.022;25.100;2023-03-23T02:03:13;;;;15.70
70969;BMP280;58630;43.022;25.100;2023-03-23T02:05:41;;;;15.70
70969;BMP280;58630;43.022;25.100;2023-03-23T02:08:07;;;;15.60
70969;BMP280;58630;43.022;25.100;2023-03-23T02:10:34;;;;15.70
70969;BMP280;58630;43.022;25.100;2023-03-23T02:13:00;;;;15.60
70969;BMP280;58630;43.022;25.100;2023-03-23T02:15:28;;;;15.60
70969;BMP280;58630;43.022;25.100;2023-03-23T02:23:13;;;;15.60
70969;BMP280;58630;43.022;25.100;2023-03-23T02:28:27;;;;15.60
70969;BMP280;58630;43.022;25.100;2023-03-23T02:41:17;;;;15.50
70969;BMP280;58630;43.022;25.100;2023-03-23T02:43:44;;;;15.50
70969;BMP280;58630;43.022;25.100;2023-03-23T02:46:10;;;;15.50
70969;BMP280;58630;43.022;25.100;2023-03-23T02:48:38;;;;15.50
70969;BMP280;58630;43.022;25.100;2023-03-23T02:51:05;;;;15.50
70969;BMP280;58630;43.022;25.100;2023-03-23T02:53:32;;;;15.50
70969;BMP280;58630;43.022;25.100;2023-03-23T02:55:58;;;;15.50
70969;BMP280;58630;43.022;25.100;2023-03-23T02:58:28;;;;15.50
70969;BMP280;58630;43.022;25.100;2023-03-23T03:00:54;;;;15.50
70969;BMP280;58630;43.022;25.100;2023-03-23T03:03:22;;;;15.50
70969;BMP280;58630;43.022;25.100;2023-03-23T03:11:08;;;;15.50
70969;BMP280;58630;43.022;25.100;2023-03-23T03:18:39;;;;15.50
70969;BMP280;58630;43.022;25.100;2023-03-23T03:21:07;;;;15.50
70969;BMP280;58630;43.022;25.100;2023-03-23T03:23:36;;;;15.50
70969;BMP280;58630;43.022;25.100;2023-03-23T03:26:02;;;;15.40
70969;BMP280;58630;43.022;25.100;2023-03-23T03:28:30;;;;15.40
70969;BMP280;58630;43.022;25.100;2023-03-23T03:30:57;;;;15.40
70969;BMP280;58630;43.022;25.100;2023-03-23T03:33:25;;;;15.40
70969;BMP280;58630;43.022;25.100;2023-03-23T03:35:53;;;;15.40
70969;BMP280;58630;43.022;25.100;2023-03-23T03:38:20;;;;15.40
70969;BMP280;58630;43.022;25.100;2023-03-23T03:40:45;;;;15.40
70969;BMP280;58630;43.022;25.100;2023-03-23T03:43:11;;;;15.40
70969;BMP280;58630;43.022;25.100;2023-03-23T03:45:37;;;;15.40
70969;BMP280;58630;43.022;25.100;2023-03-23T03:48:02;;;;15.40
70969;BMP280;58630;43.022;25.100;2023-03-23T03:50:28;;;;15.40
70969;BMP280;58630;43.022;25.100;2023-03-23T03:52:53;;;;15.40
70969;BMP280;58630;43.022;25.100;2023-03-23T03:55:19;;;;15.40
70969;BMP280;58630;43.022;25.100;2023-03-23T03:57:45;;;;15.40
70969;BMP280;58630;43.022;25.100;2023-03-23T04:00:10;;;;15.40
70969;BMP280;58630;43.022;25.100;2023-03-23T04:02:42;;;;15.40
70969;BMP280;58630;43.022;25.100;2023-03-23T04:05:08;;;;15.40
70969;BMP280;58630;43.022;25.100;2023-03-23T04:07:35;;;;15.30
70969;BMP280;58630;43.022;25.100;2023-03-23T04:10:04;;;;15.30
70969;BMP280;58630;43.022;25.100;2023-03-23T04:12:30;;;;15.30
70969;BMP280;58630;43.022;25.100;2023-03-23T04:14:56;;;;15.30
70969;BMP280;58630;43.022;25.100;2023-03-23T04:17:22;;;;15.30
70969;BMP280;58630;43.022;25.100;2023-03-23T04:19:47;;;;15.30
70969;BMP280;58630;43.022;25.100;2023-03-23T04:22:13;;;;15.30
70969;BMP280;58630;43.022;25.100;2023-03-23T04:24:38;;;;15.30
70969;BMP280;58630;43.022;25.100;2023-03-23T04:27:04;;;;15.30
70969;BMP280;58630;43.022;25.100;2023-03-23T04:29:30;;;;15.30
70969;BMP280;58630;43.022;25.100;2023-03-23T04:31:55;;;;15.30
70969;BMP280;58630;43.022;25.100;2023-03-23T04:34:22;;;;15.30
70969;BMP280;58630;43.022;25.100;2023-03-23T04:36:48;;;;15.30
70969;BMP280;58630;43.022;25.100;2023-03-23T04:39:14;;;;15.30
70969;BMP280;58630;43.022;25.100;2023-03-23T04:41:41;;;;15.30
70969;BMP280;58630;43.022;25.100;2023-03-23T04:44:06;;;;15.30
70969;BMP280;58630;43.022;25.100;2023-03-23T04:46:32;;;;15.20
70969;BMP280;58630;43.022;25.100;2023-03-23T04:48:58;;;;15.30
70969;BMP280;58630;43.022;25.100;2023-03-23T04:51:25;;;;15.30
70969;BMP280;58630;43.022;25.100;2023-03-23T04:53:51;;;;15.20
70969;BMP280;58630;43.022;25.100;2023-03-23T04:56:17;;;;15.20
70969;BMP280;58630;43.022;25.100;2023-03-23T04:58:43;;;;15.20
70969;BMP280;58630;43.022;25.100;2023-03-23T05:01:10;;;;15.20
70969;BMP280;58630;43.022;25.100;2023-03-23T05:03:39;;;;15.20
70969;BMP280;58630;43.022;25.100;2023-03-23T05:06:05;;;;15.20
70969;BMP280;58630;43.022;25.100;2023-03-23T05:08:31;;;;15.20
70969;BMP280;58630;43.022;25.100;2023-03-23T05:10:57;;;;15.20
70969;BMP280;58630;43.022;25.100;2023-03-23T05:13:23;;;;15.20
70969;BMP280;58630;43.022;25.100;2023-03-23T05:15:49;;;;15.20
70969;BMP280;58630;43.022;25.100;2023-03-23T05:18:15;;;;15.20
70969;BMP280;58630;43.022;25.100;2023-03-23T05:20:41;;;;15.20
70969;BMP280;58630;43.022;25.100;2023-03-23T05:23:11;;;;15.20
70969;BMP280;58630;43.022;25.100;2023-03-23T05:25:37;;;;15.20
70969;BMP280;58630;43.022;25.100;2023-03-23T05:28:06;;;;15.20
70969;BMP280;58630;43.022;25.100;2023-03-23T05:30:31;;;;15.20
70969;BMP280;58630;43.022;25.100;2023-03-23T05:32:57;;;;15.20
70969;BMP280;58630;43.022;25.100;2023-03-23T05:35:22;;;;15.20
70969;BMP280;58630;43.022;25.100;2023-03-23T05:37:48;;;;15.20
70969;BMP280;58630;43.022;25.100;2023-03-23T05:40:13;;;;15.20
70969;BMP280;58630;43.022;25.100;2023-03-23T05:42:40;;;;15.20
70969;BMP280;58630;43.022;25.100;2023-03-23T05:45:06;;;;15.20
70969;BMP280;58630;43.022;25.100;2023-03-23T05:47:32;;;;15.20
70969;BMP280;58630;43.022;25.100;2023-03-23T05:49:58;;;;15.20
70969;BMP280;58630;43.022;25.100;2023-03-23T05:52:24;;;;15.20
70969;BMP280;58630;43.022;25.100;2023-03-23T05:54:50;;;;15.20
70969;BMP280;58630;43.022;25.100;2023-03-23T05:57:16;;;;15.20
70969;BMP280;58630;43.022;25.100;2023-03-23T05:59:42;;;;15.20
70969;BMP280;58630;43.022;25.100;2023-03-23T06:02:08;;;;15.20
70969;BMP280;58630;43.022;25.100;2023-03-23T06:04:35;;;;15.20
70969;BMP280;58630;43.022;25.100;2023-03-23T06:07:03;;;;15.20
70969;BMP280;58630;43.022;25.100;2023-03-23T06:09:29;;;;15.20
70969;BMP280;58630;43.022;25.100;2023-03-23T06:11:54;;;;15.20
70969;BMP280;58630;43.022;25.100;2023-03-23T06:14:20;;;;15.20
70969;BMP280;58630;43.022;25.100;2023-03-23T06:16:46;;;;15.20
70969;BMP280;58630;43.022;25.100;2023-03-23T06:19:12;;;;15.20
70969;BMP280;58630;43.022;25.100;2023-03-23T06:21:38;;;;15.20
70969;BMP280;58630;43.022;25.100;2023-03-23T06:24:03;;;;15.20
70969;BMP280;58630;43.022;25.100;2023-03-23T06:26:31;;;;15.20
70969;BMP280;58630;43.022;25.100;2023-03-23T06:28:57;;;;15.20
70969;BMP280;58630;43.022;25.100;2023-03-23T06:31:23;;;;15.20
70969;BMP280;58630;43.022;25.100;2023-03-23T06:33:49;;;;15.20
70969;BMP280;58630;43.022;25.100;2023-03-23T06:36:15;;;;15.20
70969;BMP280;58630;43.022;25.100;2023-03-23T06:38:42;;;;15.20
70969;BMP280;58630;43.022;25.100;2023-03-23T06:41:07;;;;15.20
70969;BMP280;58630;43.022;25.100;2023-03-23T06:43:33;;;;15.20
70969;BMP280;58630;43.022;25.100;2023-03-23T06:46:01;;;;15.20
70969;BMP280;58630;43.022;25.100;2023-03-23T06:48:27;;;;15.20
70969;BMP280;58630;43.022;25.100;2023-03-23T06:50:52;;;;15.20
70969;BMP280;58630;43.022;25.100;2023-03-23T06:53:18;;;;15.20
70969;BMP280;58630;43.022;25.100;2023-03-23T06:55:45;;;;15.30
70969;BMP280;58630;43.022;25.100;2023-03-23T06:58:11;;;;15.30
70969;BMP280;58630;43.022;25.100;2023-03-23T07:00:36;;;;15.30
70969;BMP280;58630;43.022;25.100;2023-03-23T07:03:02;;;;15.30
70969;BMP280;58630;43.022;25.100;2023-03-23T07:05:29;;;;15.30
70969;BMP280;58630;43.022;25.100;2023-03-23T07:07:55;;;;15.40
70969;BMP280;58630;43.022;25.100;2023-03-23T07:10:21;;;;15.40
70969;BMP280;58630;43.022;25.100;2023-03-23T07:12:46;;;;15.40
70969;BMP280;58630;43.022;25.100;2023-03-23T07:15:12;;;;15.40
70969;BMP280;58630;43.022;25.100;2023-03-23T07:17:38;;;;15.40
70969;BMP280;58630;43.022;25.100;2023-03-23T07:20:05;;;;15.40
70969;BMP280;58630;43.022;25.100;2023-03-23T07:22:31;;;;15.50
70969;BMP280;58630;43.022;25.100;2023-03-23T07:24:57;;;;15.40
70969;BMP280;58630;43.022;25.100;2023-03-23T07:27:22;;;;15.50
70969;BMP280;58630;43.022;25.100;2023-03-23T07:29:48;;;;15.50
70969;BMP280;58630;43.022;25.100;2023-03-23T07:32:14;;;;15.50
70969;BMP280;58630;43.022;25.100;2023-03-23T07:34:39;;;;15.50
70969;BMP280;58630;43.022;25.100;2023-03-23T07:37:05;;;;15.50
70969;BMP280;58630;43.022;25.100;2023-03-23T07:39:31;;;;15.50
70969;BMP280;58630;43.022;25.100;2023-03-23T07:41:57;;;;15.50
70969;BMP280;58630;43.022;25.100;2023-03-23T07:44:22;;;;15.50
70969;BMP280;58630;43.022;25.100;2023-03-23T07:46:48;;;;15.50
70969;BMP280;58630;43.022;25.100;2023-03-23T07:49:14;;;;15.50
70969;BMP280;58630;43.022;25.100;2023-03-23T07:51:40;;;;15.50
70969;BMP280;58630;43.022;25.100;2023-03-23T07:54:06;;;;15.50
70969;BMP280;58630;43.022;25.100;2023-03-23T07:56:33;;;;15.50
70969;BMP280;58630;43.022;25.100;2023-03-23T07:58:58;;;;15.60
70969;BMP280;58630;43.022;25.100;2023-03-23T08:01:24;;;;15.50
70969;BMP280;58630;43.022;25.100;2023-03-23T08:03:50;;;;15.60
70969;BMP280;58630;43.022;25.100;2023-03-23T08:06:16;;;;15.60
70969;BMP280;58630;43.022;25.100;2023-03-23T08:08:42;;;;15.60
70969;BMP280;58630;43.022;25.100;2023-03-23T08:11:07;;;;15.60
70969;BMP280;58630;43.022;25.100;2023-03-23T08:13:33;;;;15.60
70969;BMP280;58630;43.022;25.100;2023-03-23T08:15:59;;;;15.60
70969;BMP280;58630;43.022;25.100;2023-03-23T08:18:29;;;;15.60
70969;BMP280;58630;43.022;25.100;2023-03-23T08:20:55;;;;15.60
70969;BMP280;58630;43.022;25.100;2023-03-23T08:23:21;;;;15.60
70969;BMP280;58630;43.022;25.100;2023-03-23T08:25:47;;;;15.60
70969;BMP280;58630;43.022;25.100;2023-03-23T08:28:12;;;;15.60
70969;BMP280;58630;43.022;25.100;2023-03-23T08:30:39;;;;15.60
70969;BMP280;58630;43.022;25.100;2023-03-23T08:33:05;;;;15.60
70969;BMP280;58630;43.022;25.100;2023-03-23T08:35:31;;;;15.60
70969;BMP280;58630;43.022;25.100;2023-03-23T08:37:56;;;;15.60
70969;BMP280;58630;43.022;25.100;2023-03-23T08:40:23;;;;15.70
70969;BMP280;58630;43.022;25.100;2023-03-23T08:42:50;;;;15.70
70969;BMP280;58630;43.022;25.100;2023-03-23T08:45:19;;;;15.70
70969;BMP280;58630;43.022;25.100;2023-03-23T08:47:45;;;;15.70
70969;BMP280;58630;43.022;25.100;2023-03-23T08:50:15;;;;15.80
70969;BMP280;58630;43.022;25.100;2023-03-23T08:52:41;;;;15.80
70969;BMP280;58630;43.022;25.100;2023-03-23T08:55:09;;;;15.80
70969;BMP280;58630;43.022;25.100;2023-03-23T08:57:35;;;;15.80
70969;BMP280;58630;43.022;25.100;2023-03-23T09:00:02;;;;15.90
70969;BMP280;58630;43.022;25.100;2023-03-23T09:02:44;;;;15.80
70969;BMP280;58630;43.022;25.100;2023-03-23T09:05:10;;;;15.90
70969;BMP280;58630;43.022;25.100;2023-03-23T09:07:37;;;;15.90
70969;BMP280;58630;43.022;25.100;2023-03-23T09:10:03;;;;15.90
70969;BMP280;58630;43.022;25.100;2023-03-23T09:12:28;;;;16.00
70969;BMP280;58630;43.022;25.100;2023-03-23T09:14:54;;;;16.00
70969;BMP280;58630;43.022;25.100;2023-03-23T09:17:20;;;;16.00
70969;BMP280;58630;43.022;25.100;2023-03-23T09:19:46;;;;16.00
70969;BMP280;58630;43.022;25.100;2023-03-23T09:22:11;;;;16.00
70969;BMP280;58630;43.022;25.100;2023-03-23T09:24:37;;;;16.10
70969;BMP280;58630;43.022;25.100;2023-03-23T09:27:03;;;;16.10
70969;BMP280;58630;43.022;25.100;2023-03-23T09:29:28;;;;16.10
70969;BMP280;58630;43.022;25.100;2023-03-23T09:31:54;;;;16.10
70969;BMP280;58630;43.022;25.100;2023-03-23T09:34:21;;;;16.20
70969;BMP280;58630;43.022;25.100;2023-03-23T09:36:47;;;;16.20
70969;BMP280;58630;43.022;25.100;2023-03-23T09:39:13;;;;16.20
70969;BMP280;58630;43.022;25.100;2023-03-23T09:44:14;;;;16.30
70969;BMP280;58630;43.022;25.100;2023-03-23T09:49:10;;;;16.30
70969;BMP280;58630;43.022;25.100;2023-03-23T09:56:43;;;;16.50
70969;BMP280;58630;43.022;25.100;2023-03-23T09:59:14;;;;16.50
70969;BMP280;58630;43.022;25.100;2023-03-23T10:01:45;;;;16.60
70969;BMP280;58630;43.022;25.100;2023-03-23T10:04:14;;;;16.60
70969;BMP280;58630;43.022;25.100;2023-03-23T10:06:41;;;;16.70
70969;BMP280;58630;43.022;25.100;2023-03-23T10:09:08;;;;16.70
70969;BMP280;58630;43.022;25.100;2023-03-23T10:11:44;;;;16.70
70969;BMP280;58630;43.022;25.100;2023-03-23T10:16:56;;;;16.80
70969;BMP280;58630;43.022;25.100;2023-03-23T10:22:10;;;;16.90
70969;BMP280;58630;43.022;25.100;2023-03-23T10:24:43;;;;17.00
70969;BMP280;58630;43.022;25.100;2023-03-23T10:27:19;;;;17.00
70969;BMP280;58630;43.022;25.100;2023-03-23T10:29:51;;;;17.00
70969;BMP280;58630;43.022;25.100;2023-03-23T10:32:18;;;;17.10
70969;BMP280;58630;43.022;25.100;2023-03-23T10:42:11;;;;17.10
70969;BMP280;58630;43.022;25.100;2023-03-23T10:44:36;;;;17.10
70969;BMP280;58630;43.022;25.100;2023-03-23T10:47:07;;;;17.10
70969;BMP280;58630;43.022;25.100;2023-03-23T10:49:38;;;;17.10
70969;BMP280;58630;43.022;25.100;2023-03-23T10:54:33;;;;17.10
70969;BMP280;58630;43.022;25.100;2023-03-23T10:57:00;;;;17.10
70969;BMP280;58630;43.022;25.100;2023-03-23T10:59:28;;;;17.10
70969;BMP280;58630;43.022;25.100;2023-03-23T11:01:55;;;;17.10
70969;BMP280;58630;43.022;25.100;2023-03-23T11:04:21;;;;17.00
70969;BMP280;58630;43.022;25.100;2023-03-23T11:06:49;;;;17.10
70969;BMP280;58630;43.022;25.100;2023-03-23T11:09:17;;;;17.10
70969;BMP280;58630;43.022;25.100;2023-03-23T11:11:47;;;;17.10
70969;BMP280;58630;43.022;25.100;2023-03-23T11:14:17;;;;17.10
70969;BMP280;58630;43.022;25.100;2023-03-23T11:16:50;;;;17.10
70969;BMP280;58630;43.022;25.100;2023-03-23T11:19:21;;;;17.10
70969;BMP280;58630;43.022;25.100;2023-03-23T11:21:47;;;;17.10
70969;BMP280;58630;43.022;25.100;2023-03-23T11:24:13;;;;17.10
70969;BMP280;58630;43.022;25.100;2023-03-23T11:26:38;;;;17.20
70969;BMP280;58630;43.022;25.100;2023-03-23T11:29:08;;;;17.20
70969;BMP280;58630;43.022;25.100;2023-03-23T11:31:36;;;;17.20
70969;BMP280;58630;43.022;25.100;2023-03-23T11:34:04;;;;17.20
70969;BMP280;58630;43.022;25.100;2023-03-23T11:36:35;;;;17.30
70969;BMP280;58630;43.022;25.100;2023-03-23T11:39:01;;;;17.30
70969;BMP280;58630;43.022;25.100;2023-03-23T11:41:31;;;;17.40
70969;BMP280;58630;43.022;25.100;2023-03-23T11:43:57;;;;17.40
70969;BMP280;58630;43.022;25.100;2023-03-23T11:46:39;;;;17.50
70969;BMP280;58630;43.022;25.100;2023-03-23T11:49:16;;;;17.50
70969;BMP280;58630;43.022;25.100;2023-03-23T11:51:51;;;;17.60
70969;BMP280;58630;43.022;25.100;2023-03-23T11:54:22;;;;18.10
70969;BMP280;58630;43.022;25.100;2023-03-23T11:56:49;;;;18.20
70969;BMP280;58630;43.022;25.100;2023-03-23T11:59:25;;;;18.30
70969;BMP280;58630;43.022;25.100;2023-03-23T12:01:53;;;;18.30
70969;BMP280;58630;43.022;25.100;2023-03-23T12:09:45;;;;18.80
70969;BMP280;58630;43.022;25.100;2023-03-23T12:12:18;;;;19.00
70969;BMP280;58630;43.022;25.100;2023-03-23T12:17:56;;;;19.30
70969;BMP280;58630;43.022;25.100;2023-03-23T12:25:48;;;;19.20
70969;BMP280;58630;43.022;25.100;2023-03-23T12:40:58;;;;18.70
70969;BMP280;58630;43.022;25.100;2023-03-23T12:46:09;;;;18.60
70969;BMP280;58630;43.022;25.100;2023-03-23T12:48:42;;;;18.60
70969;BMP280;58630;43.022;25.100;2023-03-23T12:56:10;;;;18.50
70969;BMP280;58630;43.022;25.100;2023-03-23T12:58:43;;;;18.50
70969;BMP280;58630;43.022;25.100;2023-03-23T13:03:53;;;;18.50
70969;BMP280;58630;43.022;25.100;2023-03-23T13:11:16;;;;18.60
70969;BMP280;58630;43.022;25.100;2023-03-23T13:13:48;;;;18.60
70969;BMP280;58630;43.022;25.100;2023-03-23T13:16:26;;;;18.60
70969;BMP280;58630;43.022;25.100;2023-03-23T13:21:31;;;;18.50
70969;BMP280;58630;43.022;25.100;2023-03-23T13:23:59;;;;18.50
70969;BMP280;58630;43.022;25.100;2023-03-23T13:26:26;;;;18.50
70969;BMP280;58630;43.022;25.100;2023-03-23T13:31:29;;;;18.40
70969;BMP280;58630;43.022;25.100;2023-03-23T13:34:00;;;;18.40
70969;BMP280;58630;43.022;25.100;2023-03-23T13:36:31;;;;18.40
70969;BMP280;58630;43.022;25.100;2023-03-23T13:38:57;;;;18.40
70969;BMP280;58630;43.022;25.100;2023-03-23T13:41:24;;;;18.40
70969;BMP280;58630;43.022;25.100;2023-03-23T13:43:51;;;;18.30
70969;BMP280;58630;43.022;25.100;2023-03-23T13:48:49;;;;18.30
70969;BMP280;58630;43.022;25.100;2023-03-23T13:56:57;;;;18.30
70969;BMP280;58630;43.022;25.100;2023-03-23T13:59:33;;;;18.40
70969;BMP280;58630;43.022;25.100;2023-03-23T14:04:55;;;;18.40
70969;BMP280;58630;43.022;25.100;2023-03-23T14:07:21;;;;18.40
70969;BMP280;58630;43.022;25.100;2023-03-23T14:09:49;;;;18.40
70969;BMP280;58630;43.022;25.100;2023-03-23T14:12:19;;;;18.50
70969;BMP280;58630;43.022;25.100;2023-03-23T14:14:55;;;;18.50
70969;BMP280;58630;43.022;25.100;2023-03-23T14:17:26;;;;18.50
70969;BMP280;58630;43.022;25.100;2023-03-23T14:19:52;;;;18.50
70969;BMP280;58630;43.022;25.100;2023-03-23T14:25:16;;;;18.60
70969;BMP280;58630;43.022;25.100;2023-03-23T14:27:42;;;;18.70
70969;BMP280;58630;43.022;25.100;2023-03-23T14:30:19;;;;18.70
70969;BMP280;58630;43.022;25.100;2023-03-23T14:32:45;;;;18.90
70969;BMP280;58630;43.022;25.100;2023-03-23T14:37:39;;;;19.20
70969;BMP280;58630;43.022;25.100;2023-03-23T14:40:05;;;;19.30
70969;BMP280;58630;43.022;25.100;2023-03-23T14:42:32;;;;19.30
70969;BMP280;58630;43.022;25.100;2023-03-23T14:44:59;;;;19.40
70969;BMP280;58630;43.022;25.100;2023-03-23T14:47:26;;;;19.40
70969;BMP280;58630;43.022;25.100;2023-03-23T14:49:53;;;;19.50
70969;BMP280;58630;43.022;25.100;2023-03-23T14:52:21;;;;19.60
70969;BMP280;58630;43.022;25.100;2023-03-23T14:54:47;;;;19.80
70969;BMP280;58630;43.022;25.100;2023-03-23T14:57:16;;;;20.00
70969;BMP280;58630;43.022;25.100;2023-03-23T14:59:42;;;;20.10
70969;BMP280;58630;43.022;25.100;2023-03-23T15:04:56;;;;20.40
70969;BMP280;58630;43.022;25.100;2023-03-23T15:07:26;;;;20.60
70969;BMP280;58630;43.022;25.100;2023-03-23T15:09:54;;;;20.70
70969;BMP280;58630;43.022;25.100;2023-03-23T15:12:21;;;;20.90
70969;BMP280;58630;43.022;25.100;2023-03-23T15:14:48;;;;20.90
70969;BMP280;58630;43.022;25.100;2023-03-23T15:17:21;;;;20.90
70969;BMP280;58630;43.022;25.100;2023-03-23T15:19:47;;;;21.00
70969;BMP280;58630;43.022;25.100;2023-03-23T15:22:21;;;;21.10
70969;BMP280;58630;43.022;25.100;2023-03-23T15:24:47;;;;21.10
70969;BMP280;58630;43.022;25.100;2023-03-23T15:27:17;;;;21.20
70969;BMP280;58630;43.022;25.100;2023-03-23T15:29:52;;;;21.30
70969;BMP280;58630;43.022;25.100;2023-03-23T15:32:25;;;;21.30
70969;BMP280;58630;43.022;25.100;2023-03-23T15:34:51;;;;21.40
70969;BMP280;58630;43.022;25.100;2023-03-23T15:37:21;;;;21.50
70969;BMP280;58630;43.022;25.100;2023-03-23T15:39:49;;;;21.50
70969;BMP280;58630;43.022;25.100;2023-03-23T15:42:25;;;;21.50
70969;BMP280;58630;43.022;25.100;2023-03-23T15:52:33;;;;21.20
70969;BMP280;58630;43.022;25.100;2023-03-23T15:54:59;;;;21.20
70969;BMP280;58630;43.022;25.100;2023-03-23T15:57:25;;;;21.20
70969;BMP280;58630;43.022;25.100;2023-03-23T15:59:50;;;;21.20
70969;BMP280;58630;43.022;25.100;2023-03-23T16:02:18;;;;21.20
70969;BMP280;58630;43.022;25.100;2023-03-23T16:04:44;;;;21.20
70969;BMP280;58630;43.022;25.100;2023-03-23T16:07:10;;;;21.20
70969;BMP280;58630;43.022;25.100;2023-03-23T16:09:38;;;;21.10
70969;BMP280;58630;43.022;25.100;2023-03-23T16:12:10;;;;21.10
70969;BMP280;58630;43.022;25.100;2023-03-23T16:14:37;;;;21.10
70969;BMP280;58630;43.022;25.100;2023-03-23T16:17:03;;;;21.10
70969;BMP280;58630;43.022;25.100;2023-03-23T16:19:28;;;;21.00
70969;BMP280;58630;43.022;25.100;2023-03-23T16:21:54;;;;21.00
70969;BMP280;58630;43.022;25.100;2023-03-23T16:24:19;;;;20.90
70969;BMP280;58630;43.022;25.100;2023-03-23T16:26:45;;;;20.90
70969;BMP280;58630;43.022;25.100;2023-03-23T16:29:11;;;;20.80
70969;BMP280;58630;43.022;25.100;2023-03-23T16:31:37;;;;20.80
70969;BMP280;58630;43.022;25.100;2023-03-23T16:34:03;;;;20.70
70969;BMP280;58630;43.022;25.100;2023-03-23T16:36:28;;;;20.70
70969;BMP280;58630;43.022;25.100;2023-03-23T16:38:54;;;;20.60
70969;BMP280;58630;43.022;25.100;2023-03-23T16:41:19;;;;20.60
70969;BMP280;58630;43.022;25.100;2023-03-23T16:43:45;;;;20.50
70969;BMP280;58630;43.022;25.100;2023-03-23T16:46:11;;;;20.50
70969;BMP280;58630;43.022;25.100;2023-03-23T16:48:37;;;;20.40
70969;BMP280;58630;43.022;25.100;2023-03-23T16:51:03;;;;20.40
70969;BMP280;58630;43.022;25.100;2023-03-23T16:53:28;;;;20.30
70969;BMP280;58630;43.022;25.100;2023-03-23T16:55:54;;;;20.30
70969;BMP280;58630;43.022;25.100;2023-03-23T16:58:21;;;;20.30
70969;BMP280;58630;43.022;25.100;2023-03-23T17:00:48;;;;20.30
70969;BMP280;58630;43.022;25.100;2023-03-23T17:03:14;;;;20.30
70969;BMP280;58630;43.022;25.100;2023-03-23T17:05:40;;;;20.30
70969;BMP280;58630;43.022;25.100;2023-03-23T17:08:07;;;;20.30
70969;BMP280;58630;43.022;25.100;2023-03-23T17:10:32;;;;20.20
70969;BMP280;58630;43.022;25.100;2023-03-23T17:12:58;;;;20.20
70969;BMP280;58630;43.022;25.100;2023-03-23T17:15:24;;;;20.20
70969;BMP280;58630;43.022;25.100;2023-03-23T17:17:50;;;;20.20
70969;BMP280;58630;43.022;25.100;2023-03-23T17:20:16;;;;20.20
70969;BMP280;58630;43.022;25.100;2023-03-23T17:22:42;;;;20.20
70969;BMP280;58630;43.022;25.100;2023-03-23T17:25:08;;;;20.20
70969;BMP280;58630;43.022;25.100;2023-03-23T17:27:34;;;;20.10
70969;BMP280;58630;43.022;25.100;2023-03-23T17:29:59;;;;20.10
70969;BMP280;58630;43.022;25.100;2023-03-23T17:32:25;;;;20.10
70969;BMP280;58630;43.022;25.100;2023-03-23T17:34:51;;;;20.10
70969;BMP280;58630;43.022;25.100;2023-03-23T17:37:18;;;;20.10
70969;BMP280;58630;43.022;25.100;2023-03-23T17:39:44;;;;20.00
70969;BMP280;58630;43.022;25.100;2023-03-23T17:42:09;;;;20.00
70969;BMP280;58630;43.022;25.100;2023-03-23T17:44:35;;;;20.00
70969;BMP280;58630;43.022;25.100;2023-03-23T17:47:01;;;;19.90
70969;BMP280;58630;43.022;25.100;2023-03-23T17:49:26;;;;19.90
70969;BMP280;58630;43.022;25.100;2023-03-23T17:51:55;;;;19.90
70969;BMP280;58630;43.022;25.100;2023-03-23T17:54:22;;;;19.80
70969;BMP280;58630;43.022;25.100;2023-03-23T17:56:50;;;;19.80